Time;durP1;ratioP1;P1;durP2;ratioP2;P2;SDS_P1;SDS_P2;PMS_P1;PMS_P2;Temp;Humidity;BMP_temperature;BMP_pressure;BME280_temperature;BME280_humidity;BME280_pressure;Samples;Min_cycle;Max_cycle;Signal;HPM_P1;HPM_P2
2022/08/07 00:00:26;;;;;;;;;4.00;3.00;;;;;21.67;33.38;101764.81;4877770;29;45504;-56
2022/08/07 00:02:54;;;;;;;;;2.00;2.00;;;;;21.63;33.71;101769.22;4877969;29;46076;-52
2022/08/07 00:05:20;;;;;;;;;3.40;3.40;;;;;21.55;33.77;101764.09;4849449;28;45527;-55
2022/08/07 00:07:46;;;;;;;;;2.00;2.00;;;;;21.54;33.96;101771.63;4850371;29;45730;-56
2022/08/07 00:10:11;;;;;;;;;1.00;1.00;;;;;21.53;34.08;101765.22;4876158;29;45540;-52
2022/08/07 00:12:37;;;;;;;;;3.50;2.75;;;;;21.43;34.18;101753.91;4877218;29;45701;-56
2022/08/07 00:15:03;;;;;;;;;3.50;3.50;;;;;21.38;34.14;101765.00;4860879;29;45403;-54
2022/08/07 00:17:28;;;;;;;;;3.00;3.00;;;;;21.34;34.18;101755.50;4877280;29;45840;-55
2022/08/07 00:19:53;;;;;;;;;3.25;3.25;;;;;21.39;34.12;101759.19;4877561;29;45402;-58
2022/08/07 00:22:19;;;;;;;;;3.00;3.00;;;;;21.34;34.00;101744.31;4876443;29;45943;-55
2022/08/07 00:24:44;;;;;;;;;3.50;2.75;;;;;21.51;34.00;101758.19;4875927;29;45390;-57
2022/08/07 00:27:10;;;;;;;;;4.00;4.00;;;;;21.54;34.07;101754.88;4876683;29;45463;-54
2022/08/07 00:29:35;;;;;;;;;4.00;3.00;;;;;21.54;34.10;101760.47;4877071;29;45803;-52
2022/08/07 00:32:02;;;;;;;;;4.25;4.25;;;;;21.58;33.98;101753.25;4877267;29;46698;-52
2022/08/07 00:34:28;;;;;;;;;3.00;3.00;;;;;21.46;34.21;101753.38;4858921;29;45489;-55
2022/08/07 00:36:54;;;;;;;;;5.20;4.20;;;;;21.25;34.62;101749.50;4877143;29;45464;-50
2022/08/07 00:39:19;;;;;;;;;4.00;2.75;;;;;21.28;34.56;101748.16;4876475;29;45401;-51
2022/08/07 00:41:48;;;;;;;;;4.00;3.00;;;;;21.10;35.24;101747.38;4880285;29;45779;-52
2022/08/07 00:44:14;;;;;;;;;2.60;2.60;;;;;21.07;35.23;101745.94;4880606;29;45226;-53
2022/08/07 00:46:40;;;;;;;;;3.25;3.00;;;;;20.99;35.59;101733.25;4864279;29;45457;-54
2022/08/07 00:49:05;;;;;;;;;3.00;3.00;;;;;20.78;35.60;101723.75;4881356;29;45338;-55
2022/08/07 00:51:31;;;;;;;;;3.00;3.00;;;;;20.89;35.69;101741.50;4880942;29;46892;-52
2022/08/07 00:53:56;;;;;;;;;1.25;1.25;;;;;20.83;35.79;101742.50;4880631;29;45340;-52
2022/08/07 00:56:22;;;;;;;;;5.25;3.50;;;;;20.77;36.16;101740.75;4881267;29;45364;-52
2022/08/07 00:58:47;;;;;;;;;3.00;3.00;;;;;20.72;36.24;101733.16;4881347;29;45257;-51
2022/08/07 01:01:14;;;;;;;;;3.75;3.25;;;;;20.62;36.30;101710.69;4880973;29;45820;-51
2022/08/07 01:03:39;;;;;;;;;4.80;3.20;;;;;20.73;36.24;101720.88;4880912;29;45351;-51
2022/08/07 01:06:05;;;;;;;;;2.75;2.75;;;;;20.78;35.83;101731.28;4881001;29;45383;-50
2022/08/07 01:08:30;;;;;;;;;4.00;3.75;;;;;20.74;36.08;101711.41;4849038;29;45774;-52
2022/08/07 01:10:56;;;;;;;;;1.00;1.00;;;;;20.91;35.90;101733.72;4863336;29;45803;-49
2022/08/07 01:13:21;;;;;;;;;3.00;3.00;;;;;20.90;35.89;101723.66;4861337;29;45715;-53
2022/08/07 01:15:47;;;;;;;;;2.00;2.00;;;;;20.91;35.82;101721.72;4863593;29;45390;-51
2022/08/07 01:18:13;;;;;;;;;2.75;2.75;;;;;20.81;36.12;101705.66;4848490;29;45360;-53
2022/08/07 01:20:54;;;;;;;;;3.00;3.00;;;;;20.92;35.78;101715.03;4880438;29;46585;-51
2022/08/07 01:23:19;;;;;;;;;2.60;2.60;;;;;20.60;36.10;101680.28;4865406;29;45392;-53
2022/08/07 01:25:45;;;;;;;;;3.00;3.00;;;;;20.66;36.19;101693.16;4848186;29;45450;-54
2022/08/07 01:28:10;;;;;;;;;5.75;2.75;;;;;20.77;36.45;101712.84;4847952;29;45615;-54
2022/08/07 01:30:36;;;;;;;;;2.50;2.50;;;;;20.65;36.06;101697.06;4880416;29;45768;-52
2022/08/07 01:33:02;;;;;;;;;5.40;4.00;;;;;;;;4847772;29;45476;-53
2022/08/07 01:35:28;;;;;;;;;4.00;3.25;;;;;20.53;36.85;101718.63;4880194;29;45320;-50
2022/08/07 01:37:54;;;;;;;;;4.20;3.00;;;;;20.55;36.77;101717.28;4880116;29;45425;-51
2022/08/07 01:40:20;;;;;;;;;3.00;3.00;;;;;20.49;36.66;101728.63;4880093;29;46668;-52
2022/08/07 01:42:46;;;;;;;;;3.20;3.20;;;;;20.42;37.14;101718.50;4848008;29;45389;-54
2022/08/07 01:45:11;;;;;;;;;2.00;2.00;;;;;20.39;37.37;101720.94;4863055;29;45294;-51
2022/08/07 01:47:37;;;;;;;;;2.00;2.00;;;;;20.45;36.95;101729.13;4863862;29;45769;-55
2022/08/07 01:50:04;;;;;;;;;2.75;2.75;;;;;20.49;37.29;101723.06;4862876;29;45748;-51
2022/08/07 01:52:30;;;;;;;;;3.40;2.00;;;;;20.34;37.18;101723.66;4862827;29;45367;-54
2022/08/07 01:54:56;;;;;;;;;3.20;3.20;;;;;20.18;37.70;101707.50;4847651;29;45401;-53
2022/08/07 01:57:24;;;;;;;;;2.00;2.00;;;;;20.18;37.60;101710.31;4863362;29;45354;-51
2022/08/07 02:00:07;;;;;;;;;5.20;3.80;;;;;20.25;37.71;101718.50;4847298;29;46529;-51
2022/08/07 02:02:46;;;;;;;;;3.00;3.00;;;;;20.25;37.78;101720.44;4879677;29;45369;-51
2022/08/07 02:05:14;;;;;;;;;2.40;2.20;;;;;20.28;38.00;101719.94;4879956;29;45285;-52
2022/08/07 02:07:49;;;;;;;;;3.80;3.80;;;;;20.31;37.86;101723.06;4863482;29;45393;-51
2022/08/07 02:10:14;;;;;;;;;2.40;2.40;;;;;20.27;37.63;101709.91;4863337;29;45472;-50
2022/08/07 02:12:41;;;;;;;;;5.75;3.75;;;;;20.20;37.64;101692.47;4863283;29;45416;-53
2022/08/07 02:15:06;;;;;;;;;1.80;1.80;;;;;20.24;37.76;101718.75;4879738;29;45267;-53
2022/08/07 02:17:32;;;;;;;;;3.50;3.50;;;;;20.34;37.86;101724.50;4862975;29;45334;-51
2022/08/07 02:19:58;;;;;;;;;2.25;2.00;;;;;20.34;37.55;101727.28;4863058;29;46349;-54
2022/08/07 02:22:24;;;;;;;;;2.40;2.40;;;;;20.20;38.10;101711.97;4862923;29;45457;-53
2022/08/07 02:24:49;;;;;;;;;3.00;3.00;;;;;20.11;38.21;101709.63;4847383;29;45648;-53
2022/08/07 02:27:15;;;;;;;;;2.25;2.25;;;;;20.07;38.40;101710.41;4863160;29;45382;-50
2022/08/07 02:29:41;;;;;;;;;2.40;2.40;;;;;20.12;38.08;101716.88;4879603;29;46867;-52
2022/08/07 02:32:07;;;;;;;;;1.25;1.25;;;;;20.16;38.28;101731.16;4847376;29;45430;-55
2022/08/07 02:34:33;;;;;;;;;2.40;2.40;;;;;20.12;38.14;101719.66;4879809;29;45474;-51
2022/08/07 02:36:58;;;;;;;;;3.50;3.50;;;;;20.13;38.29;101714.97;4863422;29;45496;-52
2022/08/07 02:39:24;;;;;;;;;3.25;2.00;;;;;20.11;38.31;101706.00;4862263;29;46527;-52
2022/08/07 02:41:50;;;;;;;;;2.60;2.60;;;;;20.20;38.71;101714.78;4862786;29;45341;-51
2022/08/07 02:44:15;;;;;;;;;1.75;1.75;;;;;20.13;38.82;101704.63;4847396;29;45335;-53
2022/08/07 02:46:41;;;;;;;;;3.25;3.25;;;;;20.08;38.51;101695.34;4862979;29;45363;-52
2022/08/07 02:49:06;;;;;;;;;4.50;2.50;;;;;20.04;38.45;101695.88;4879245;29;45572;-51
2022/08/07 02:51:32;;;;;;;;;3.00;3.00;;;;;19.92;38.83;101687.53;4865864;29;45542;-52
2022/08/07 02:53:59;;;;;;;;;4.80;3.40;;;;;20.00;38.97;101707.75;4829333;29;45669;-52
2022/08/07 02:56:25;;;;;;;;;3.60;3.60;;;;;20.06;38.74;101700.34;4850754;29;45390;-54
2022/08/07 02:58:50;;;;;;;;;3.00;3.00;;;;;19.89;38.97;101674.13;4865949;29;45563;-51
2022/08/07 03:01:17;;;;;;;;;3.75;3.50;;;;;20.09;38.77;101708.19;4850363;29;45393;-53
2022/08/07 03:03:42;;;;;;;;;2.00;2.00;;;;;20.13;39.08;101706.59;4850537;29;45466;-52
2022/08/07 03:06:08;;;;;;;;;3.00;3.00;;;;;20.14;38.65;101706.34;4850292;29;45664;-52
2022/08/07 03:08:33;;;;;;;;;1.50;1.50;;;;;20.10;38.67;101702.38;4882471;29;45621;-53
2022/08/07 03:10:59;;;;;;;;;2.00;2.00;;;;;19.99;39.20;101704.16;4864360;29;45512;-52
2022/08/07 03:13:24;;;;;;;;;2.25;2.25;;;;;19.87;39.27;101683.84;4848965;29;45525;-52
2022/08/07 03:15:50;;;;;;;;;3.00;3.00;;;;;19.86;39.73;101699.69;4849024;29;45440;-53
2022/08/07 03:18:16;;;;;;;;;2.50;2.25;;;;;19.81;39.29;101702.41;4849148;29;46504;-54
2022/08/07 03:20:41;;;;;;;;;3.25;3.25;;;;;19.81;39.53;101704.34;4864119;29;45422;-53
2022/08/07 03:23:07;;;;;;;;;2.50;2.50;;;;;19.87;39.42;101714.47;4864203;29;45487;-50
2022/08/07 03:25:32;;;;;;;;;3.50;3.50;;;;;19.87;39.66;101695.84;4864586;29;45282;-52
2022/08/07 03:27:58;;;;;;;;;4.00;4.00;;;;;19.92;39.31;101704.25;4864152;29;46765;-51
2022/08/07 03:30:24;;;;;;;;;3.25;3.25;;;;;19.89;39.42;101699.22;4881057;29;45291;-54
2022/08/07 03:32:49;;;;;;;;;3.75;3.75;;;;;19.94;39.51;101700.41;4864188;29;45384;-53
2022/08/07 03:35:21;;;;;;;;;2.50;2.50;;;;;19.77;39.46;101671.44;4864595;29;45203;-52
2022/08/07 03:37:49;;;;;;;;;3.80;2.60;;;;;19.66;39.98;101689.06;4863792;29;46827;-54
2022/08/07 03:40:14;;;;;;;;;3.80;2.80;;;;;19.73;39.97;101700.88;4848734;29;45374;-51
2022/08/07 03:42:40;;;;;;;;;5.25;4.00;;;;;19.77;39.60;101704.84;4848803;29;45328;-53
2022/08/07 03:45:06;;;;;;;;;1.25;1.25;;;;;19.87;39.76;101711.69;4863928;29;45329;-55
2022/08/07 03:47:31;;;;;;;;;4.80;4.80;;;;;19.88;39.54;101714.25;4848370;29;45618;-55
2022/08/07 03:49:57;;;;;;;;;2.00;2.00;;;;;19.87;40.22;101709.78;4880524;29;45271;-55
2022/08/07 03:52:24;;;;;;;;;6.00;2.00;;;;;19.76;40.44;101711.50;4881066;29;45399;-50
2022/08/07 03:54:49;;;;;;;;;3.80;3.80;;;;;19.66;40.33;101713.25;4864329;29;45422;-52
2022/08/07 03:57:15;;;;;;;;;3.50;3.50;;;;;19.67;40.44;101713.00;4863540;29;48491;-55
2022/08/07 03:59:40;;;;;;;;;2.25;2.00;;;;;19.60;40.58;101707.63;4864026;29;45410;-54
2022/08/07 04:02:07;;;;;;;;;4.00;3.00;;;;;19.46;40.49;101684.78;4863354;29;45369;-52
2022/08/07 04:04:33;;;;;;;;;4.60;3.80;;;;;19.47;40.77;101694.81;4864148;29;45361;-51
2022/08/07 04:06:58;;;;;;;;;3.00;3.00;;;;;19.61;40.48;101714.00;4848015;29;47516;-53
2022/08/07 04:09:24;;;;;;;;;1.75;1.75;;;;;19.39;41.02;101694.38;4837851;29;1247445;-52
2022/08/07 04:11:49;;;;;;;;;4.00;3.00;;;;;19.37;40.93;101701.03;4881911;29;45344;-52
2022/08/07 04:14:15;;;;;;;;;3.00;3.00;;;;;19.42;41.13;101707.81;4864730;29;45317;-54
2022/08/07 04:16:40;;;;;;;;;5.00;5.00;;;;;19.39;41.01;101708.28;4881211;29;46469;-51
2022/08/07 04:19:06;;;;;;;;;4.00;4.00;;;;;19.33;41.23;101705.41;4848857;29;45250;-54
2022/08/07 04:21:32;;;;;;;;;3.50;2.50;;;;;19.28;41.59;101702.53;4864617;29;45205;-50
2022/08/07 04:23:57;;;;;;;;;4.00;4.00;;;;;19.29;41.60;101701.44;4864902;29;45567;-50
2022/08/07 04:26:23;;;;;;;;;7.00;7.00;;;;;19.28;41.67;101687.78;4864226;29;46294;-52
2022/08/07 04:28:48;;;;;;;;;2.00;2.00;;;;;19.34;41.70;101707.13;4848569;29;45375;-53
2022/08/07 04:31:13;;;;;;;;;4.75;4.00;;;;;19.32;41.57;101692.59;4864595;29;45292;-53
2022/08/07 04:33:39;;;;;;;;;5.00;5.00;;;;;19.38;41.25;101704.69;4849599;29;45450;-50
2022/08/07 04:36:07;;;;;;;;;5.00;4.00;;;;;19.32;41.47;101700.94;4848824;29;46478;-51
2022/08/07 04:38:33;;;;;;;;;3.60;3.60;;;;;19.14;42.40;101692.75;4881401;29;45366;-53
2022/08/07 04:40:59;;;;;;;;;4.50;3.25;;;;;19.00;42.24;101706.91;4864856;29;45487;-51
2022/08/07 04:43:26;;;;;;;;;4.50;4.00;;;;;18.90;42.82;101698.38;4881570;29;46036;-54
2022/08/07 04:45:59;;;;;;;;;5.00;4.20;;;;;18.89;42.21;101702.25;4848990;29;45865;-53
2022/08/07 04:48:30;;;;;;;;;3.40;3.00;;;;;18.94;42.54;101705.97;4849244;29;45281;-54
2022/08/07 04:51:05;;;;;;;;;3.00;3.00;;;;;19.07;42.29;101706.84;4851895;29;45463;-55
2022/08/07 04:53:41;;;;;;;;;3.00;3.00;;;;;19.01;42.48;101699.44;4863613;29;45473;-52
2022/08/07 04:56:17;;;;;;;;;5.00;2.40;;;;;18.96;42.50;101712.13;4848398;29;46986;-53
2022/08/07 04:58:53;;;;;;;;;4.60;4.40;;;;;19.10;42.20;101720.22;4864619;29;45432;-50
2022/08/07 05:01:37;;;;;;;;;4.00;4.00;;;;;19.28;41.52;101710.03;4864304;29;45357;-53
2022/08/07 05:04:12;;;;;;;;;3.40;2.00;;;;;19.26;41.79;101710.28;4881451;29;45369;-54
2022/08/07 05:06:57;;;;;;;;;4.00;4.00;;;;;19.26;41.64;101704.72;4864481;29;45748;-50
2022/08/07 05:09:31;;;;;;;;;3.00;3.00;;;;;19.43;41.58;101726.19;4880800;29;45453;-54
2022/08/07 05:11:57;;;;;;;;;1.80;1.80;;;;;19.35;41.74;101719.06;4864335;29;45423;-51
2022/08/07 05:14:26;;;;;;;;;5.00;3.50;;;;;19.43;41.75;101740.13;4845565;29;45447;-51
2022/08/07 05:16:54;;;;;;;;;3.40;3.40;;;;;19.36;41.37;101731.91;4845469;29;45642;-51
2022/08/07 05:19:20;;;;;;;;;4.20;4.20;;;;;19.33;41.63;101740.75;4830499;29;45432;-53
2022/08/07 05:21:53;;;;;;;;;4.00;4.00;;;;;19.33;42.04;101736.03;4845303;29;45324;-54
2022/08/07 05:24:20;;;;;;;;;3.20;3.20;;;;;19.29;41.66;101712.56;4846109;29;45797;-51
2022/08/07 05:26:46;;;;;;;;;3.20;3.20;;;;;19.42;42.12;101749.56;4845011;29;45582;-54
2022/08/07 05:29:11;;;;;;;;;5.25;4.75;;;;;19.23;42.17;101745.00;4862426;29;45553;-52
2022/08/07 05:31:38;;;;;;;;;3.00;3.00;;;;;19.19;42.71;101754.09;4829954;29;45394;-56
2022/08/07 05:34:05;;;;;;;;;3.20;3.20;;;;;19.11;42.42;101747.00;4845932;29;45959;-55
2022/08/07 05:36:32;;;;;;;;;2.80;2.80;;;;;18.91;43.04;101744.56;4830239;29;46655;-52
2022/08/07 05:38:57;;;;;;;;;2.80;2.80;;;;;19.04;43.04;101749.91;4845466;29;45394;-53
2022/08/07 05:41:22;;;;;;;;;4.25;4.25;;;;;19.09;42.42;101741.66;4830073;29;45323;-51
2022/08/07 05:43:51;;;;;;;;;5.00;5.00;;;;;19.03;42.17;101731.50;4845517;29;45570;-51
2022/08/07 05:46:18;;;;;;;;;4.00;4.00;;;;;19.00;42.43;101726.41;4830206;29;46022;-52
2022/08/07 05:48:43;;;;;;;;;3.60;3.60;;;;;19.00;42.55;101726.41;4845019;29;45315;-53
2022/08/07 05:51:09;;;;;;;;;4.75;3.50;;;;;18.98;42.65;101724.97;4862265;29;45268;-52
2022/08/07 05:53:34;;;;;;;;;3.25;3.25;;;;;19.18;42.51;101752.41;4845573;29;45580;-53
2022/08/07 05:56:00;;;;;;;;;4.25;3.75;;;;;19.12;42.77;101745.91;4861630;29;46440;-51
2022/08/07 05:58:26;;;;;;;;;3.00;3.00;;;;;19.25;42.44;101757.84;4844986;29;45355;-54
2022/08/07 06:00:51;;;;;;;;;6.00;6.00;;;;;19.13;41.96;101735.59;4829680;29;45532;-54
2022/08/07 06:03:18;;;;;;;;;3.00;3.00;;;;;19.27;42.34;101739.81;4845624;29;45296;-55
2022/08/07 06:05:45;;;;;;;;;5.60;5.00;;;;;19.31;42.08;101738.22;4829667;29;45452;-54
2022/08/07 06:08:10;;;;;;;;;4.20;4.20;;;;;19.45;41.91;101768.53;4844826;29;45387;-54
2022/08/07 06:10:36;;;;;;;;;3.25;3.00;;;;;19.48;41.89;101768.88;4861615;29;45410;-54
2022/08/07 06:13:01;;;;;;;;;2.75;2.00;;;;;19.33;42.50;101749.09;4844927;29;45358;-54
2022/08/07 06:15:27;;;;;;;;;3.25;3.25;;;;;19.05;42.61;101732.09;4878963;29;45380;-53
2022/08/07 06:17:52;;;;;;;;;9.00;6.00;;;;;19.18;42.46;101747.69;4847936;29;45625;-50
2022/08/07 06:20:18;;;;;;;;;4.00;4.00;;;;;19.29;42.32;101757.09;4863670;29;45497;-54
2022/08/07 06:22:43;;;;;;;;;3.50;3.50;;;;;19.34;42.12;101748.88;4880261;29;45577;-55
2022/08/07 06:25:09;;;;;;;;;6.50;5.00;;;;;19.32;42.45;101747.41;4864776;29;45514;-55
2022/08/07 06:27:34;;;;;;;;;4.25;3.00;;;;;19.39;42.54;101758.41;4866809;29;45435;-53
2022/08/07 06:30:00;;;;;;;;;2.75;2.75;;;;;19.30;41.84;101732.88;4851238;29;45420;-54
2022/08/07 06:32:25;;;;;;;;;3.75;3.75;;;;;19.54;42.16;101758.72;4883641;29;45653;-53
2022/08/07 06:34:51;;;;;;;;;4.75;4.50;;;;;19.48;41.76;101748.56;4883328;29;45315;-55
2022/08/07 06:37:16;;;;;;;;;4.00;4.00;;;;;19.60;42.07;101754.94;4866604;29;45431;-55
2022/08/07 06:39:42;;;;;;;;;5.25;5.25;;;;;19.34;41.78;101712.69;4866864;29;45338;-52
2022/08/07 06:42:08;;;;;;;;;2.50;2.50;;;;;19.63;41.60;101756.38;4866658;29;45465;-54
2022/08/07 06:44:33;;;;;;;;;2.25;2.25;;;;;19.68;41.45;101752.84;4883501;29;45773;-53
2022/08/07 06:46:59;;;;;;;;;3.20;3.20;;;;;19.74;41.21;101749.91;4850908;29;45375;-51
2022/08/07 06:49:25;;;;;;;;;2.00;2.00;;;;;19.76;41.31;101752.44;4850733;29;45465;-52
2022/08/07 06:51:50;;;;;;;;;5.75;4.75;;;;;19.76;41.14;101752.44;4883565;29;45331;-51
2022/08/07 06:54:16;;;;;;;;;3.00;3.00;;;;;19.82;41.04;101753.38;4866113;29;45644;-50
2022/08/07 06:56:49;;;;;;;;;3.00;3.00;;;;;19.71;40.81;101730.06;4866560;29;45518;-55
2022/08/07 06:59:41;;;;;;;;;5.80;4.60;;;;;19.80;41.18;101755.56;4867322;29;45453;-55
2022/08/07 07:02:18;;;;;;;;;5.00;5.00;;;;;19.78;41.29;101753.03;4851894;29;45429;-52
2022/08/07 07:04:44;;;;;;;;;3.00;3.00;;;;;19.61;41.13;101723.22;4850384;29;47214;-55
2022/08/07 07:07:10;;;;;;;;;3.60;3.60;;;;;19.71;40.70;101730.91;4866248;29;45457;-54
2022/08/07 07:09:36;;;;;;;;;5.75;4.00;;;;;19.88;41.25;101760.72;4850559;29;45359;-53
2022/08/07 07:12:05;;;;;;;;;4.80;3.80;;;;;19.95;40.77;101763.38;4882852;29;45380;-55
2022/08/07 07:14:36;;;;;;;;;5.60;4.80;;;;;19.98;40.77;101760.09;4882388;29;45905;-52
2022/08/07 07:17:05;;;;;;;;;3.40;2.80;;;;;19.92;40.55;101737.69;4865610;29;45439;-54
2022/08/07 07:19:37;;;;;;;;;2.00;2.00;;;;;19.96;40.60;101742.81;4882609;29;45274;-51
2022/08/07 07:22:03;;;;;;;;;3.20;3.20;;;;;20.09;40.47;101764.78;4866254;29;45359;-55
2022/08/07 07:24:28;;;;;;;;;5.00;5.00;;;;;19.99;40.80;101762.66;4882472;29;45664;-53
2022/08/07 07:26:55;;;;;;;;;2.00;2.00;;;;;19.90;40.71;101739.03;4882410;29;45420;-52
2022/08/07 07:29:24;;;;;;;;;2.20;1.60;;;;;20.09;40.31;101762.00;4850032;29;45465;-53
2022/08/07 07:31:51;;;;;;;;;2.80;2.80;;;;;20.10;40.59;101765.59;4850368;29;45700;-51
2022/08/07 07:34:18;;;;;;;;;2.80;2.80;;;;;19.91;40.38;101738.78;4850165;29;45910;-54
2022/08/07 07:36:44;;;;;;;;;2.60;2.60;;;;;19.84;40.44;101731.72;4849548;29;45310;-52
2022/08/07 07:39:09;;;;;;;;;3.75;3.50;;;;;19.68;40.45;101713.88;4850059;29;45253;-55
2022/08/07 07:41:35;;;;;;;;;3.00;3.00;;;;;20.01;40.40;101751.25;4882252;29;45367;-53
2022/08/07 07:44:00;;;;;;;;;2.25;1.50;;;;;20.13;40.28;101756.75;4865354;29;46898;-52
2022/08/07 07:46:33;;;;;;;;;6.00;4.00;;;;;20.09;40.10;101738.84;4865254;29;45388;-52
2022/08/07 07:48:59;;;;;;;;;2.40;2.40;;;;;20.11;40.03;101728.31;4865485;29;45415;-54
2022/08/07 07:51:24;;;;;;;;;3.50;1.50;;;;;20.31;40.20;101750.94;4865392;29;45602;-51
2022/08/07 07:53:50;;;;;;;;;1.50;0.50;;;;;20.37;39.73;101745.44;4881840;29;45832;-52
2022/08/07 07:56:15;;;;;;;;;2.50;2.50;;;;;20.39;39.25;101740.47;4850009;29;45389;-50
2022/08/07 07:58:41;;;;;;;;;2.50;1.50;;;;;20.47;39.40;101748.38;4865119;29;45375;-51
2022/08/07 08:01:07;;;;;;;;;2.75;1.75;;;;;20.59;39.41;101748.28;4849840;29;45568;-51
2022/08/07 08:03:33;;;;;;;;;2.60;1.20;;;;;20.71;38.97;101739.84;4881858;29;46367;-57
2022/08/07 08:05:59;;;;;;;;;4.20;2.40;;;;;20.71;39.24;101726.72;4865166;29;45346;-56
2022/08/07 08:08:31;;;;;;;;;4.00;2.75;;;;;20.39;38.75;101671.59;4849444;29;45528;-59
2022/08/07 08:10:58;;;;;;;;;3.20;2.80;;;;;20.89;38.35;101737.88;4850056;29;45510;-57
2022/08/07 08:13:24;;;;;;;;;1.60;1.60;;;;;20.94;38.33;101733.22;4865078;29;45483;-56
2022/08/07 08:15:49;;;;;;;;;2.00;2.00;;;;;20.87;37.82;101718.63;4849518;29;45646;-56
2022/08/07 08:18:15;;;;;;;;;1.25;1.25;;;;;20.71;38.13;101696.03;4849963;29;45584;-54
2022/08/07 08:20:40;;;;;;;;;1.75;1.75;;;;;21.01;37.81;101723.81;4865568;29;45403;-49
2022/08/07 08:28:36;;;;;;;;;2.60;1.60;;;;;21.15;37.50;101730.69;4854435;29;45357;-53
2022/08/07 08:31:02;;;;;;;;;1.20;1.20;;;;;21.08;37.54;101700.16;4865457;29;45981;-57
2022/08/07 08:33:29;;;;;;;;;1.75;1.75;;;;;21.13;37.23;101696.59;4864967;29;45517;-55
2022/08/07 08:35:55;;;;;;;;;1.80;1.80;;;;;21.20;37.43;101707.56;4849093;29;45366;-53
2022/08/07 08:38:22;;;;;;;;;1.75;0.75;;;;;21.39;37.36;101727.59;4861971;29;45626;-56
2022/08/07 08:40:56;;;;;;;;;1.40;0.40;;;;;21.45;36.74;101715.38;4854546;29;45486;-56
2022/08/07 08:43:36;;;;;;;;;1.80;1.80;;;;;21.55;36.74;101716.63;4864645;29;46633;-55
2022/08/07 08:46:08;;;;;;;;;1.20;1.20;;;;;21.57;36.68;101714.41;4881195;29;45465;-52
2022/08/07 08:48:41;;;;;;;;;3.00;2.60;;;;;21.52;36.50;101716.03;4880955;29;45299;-55
2022/08/07 08:51:40;;;;;;;;;1.00;1.00;;;;;21.61;36.42;101710.00;4864696;29;45435;-51
2022/08/07 08:54:15;;;;;;;;;3.00;1.00;;;;;21.68;36.46;101707.81;4876280;29;45998;-53
2022/08/07 08:56:42;;;;;;;;;1.60;1.60;;;;;21.66;35.45;101699.69;4850080;29;45390;-55
2022/08/07 08:59:14;;;;;;;;;1.40;1.40;;;;;21.76;35.42;101707.38;4864373;29;45525;-53
2022/08/07 09:01:53;;;;;;;;;2.80;2.80;;;;;21.76;35.06;101681.38;4856603;29;45466;-54
2022/08/07 09:04:21;;;;;;;;;1.00;1.00;;;;;21.86;35.00;101677.81;4818344;29;51141;-49
2022/08/07 09:06:54;;;;;;;;;2.00;2.00;;;;;21.98;34.64;101689.69;4870543;29;45937;-51
2022/08/07 09:09:44;;;;;;;;;2.00;2.00;;;;;22.15;34.43;101706.31;4839732;29;45521;-51
2022/08/07 09:12:44;;;;;;;;;8.60;7.00;;;;;22.19;33.75;101712.19;4848219;29;46032;-53
2022/08/07 09:15:33;;;;;;;;;0.20;0.20;;;;;22.12;33.34;101681.69;4870343;29;46574;-48
2022/08/07 09:18:14;;;;;;;;;1.00;1.00;;;;;22.33;33.32;101710.66;4839300;29;45456;-56
2022/08/07 09:21:08;;;;;;;;;1.00;1.00;;;;;22.41;33.29;101703.69;4858074;29;45633;-53
2022/08/07 09:23:51;;;;;;;;;1.40;1.00;;;;;22.32;33.30;101683.78;4848822;29;45593;-52
2022/08/07 09:26:20;;;;;;;;;4.00;1.00;;;;;22.34;32.98;101673.19;4882602;29;45982;-54
2022/08/07 09:28:51;;;;;;;;;1.00;1.00;;;;;22.51;32.14;101693.72;4880026;29;45471;-49
2022/08/07 09:31:31;;;;;;;;;1.00;1.00;;;;;22.65;32.10;101703.34;4898116;29;45492;-52
2022/08/07 09:34:24;;;;;;;;;3.60;1.40;;;;;22.74;32.03;101707.28;4883843;29;45459;-51
2022/08/07 09:37:03;;;;;;;;;1.00;1.00;;;;;22.83;32.06;101704.00;4882456;29;45911;-53
2022/08/07 09:39:41;;;;;;;;;2.00;2.00;;;;;22.85;31.92;101687.75;4898069;29;45319;-55
2022/08/07 09:42:26;;;;;;;;;3.20;2.20;;;;;22.93;32.06;101692.84;4848912;28;45637;-52
2022/08/07 09:45:05;;;;;;;;;3.00;3.00;;;;;22.83;31.89;101679.63;4830479;29;46900;-55
2022/08/07 09:47:44;;;;;;;;;2.60;2.00;;;;;22.99;31.83;101710.47;4841426;29;45681;-55
2022/08/07 09:50:27;;;;;;;;;1.00;1.00;;;;;23.04;31.94;101702.13;4859243;29;45468;-53
2022/08/07 09:53:00;;;;;;;;;2.00;2.00;;;;;22.88;31.90;101668.47;4859912;29;45396;-56
2022/08/07 09:55:33;;;;;;;;;1.80;1.80;;;;;23.05;31.91;101702.97;4876199;29;45620;-55
2022/08/07 09:58:05;;;;;;;;;1.00;1.00;;;;;23.08;31.53;101703.25;4844277;29;45934;-50
2022/08/07 10:01:09;;;;;;;;;1.80;1.80;;;;;23.07;31.98;101697.94;4858451;29;45837;-55
2022/08/07 10:03:46;;;;;;;;;4.40;4.40;;;;;23.15;31.94;101691.78;4839458;29;46055;-54
2022/08/07 10:06:25;;;;;;;;;2.00;2.00;;;;;22.97;32.31;101640.81;4860143;29;45580;-55
2022/08/07 10:09:10;;;;;;;;;3.00;3.00;;;;;23.32;32.28;101686.00;4876300;29;45449;-54
2022/08/07 10:11:58;;;;;;;;;1.60;1.60;;;;;23.38;31.86;101672.88;4840227;29;45711;-55
2022/08/07 10:14:46;;;;;;;;;2.00;2.00;;;;;23.30;31.91;101654.63;4856230;29;45386;-55
2022/08/07 10:17:38;;;;;;;;;3.60;3.60;;;;;23.47;31.62;101676.78;4855689;29;45526;-56
2022/08/07 10:20:11;;;;;;;;;3.00;3.00;;;;;23.52;31.99;101676.81;4828311;29;46640;-55
2022/08/07 10:22:58;;;;;;;;;1.20;1.20;;;;;22.84;31.49;101563.78;4840302;29;45557;-55
2022/08/07 10:25:33;;;;;;;;;1.80;1.80;;;;;23.56;31.36;101663.09;4849733;29;45903;-57
2022/08/07 10:28:22;;;;;;;;;2.40;2.40;;;;;23.59;31.14;101656.09;4857012;29;45427;-57
2022/08/07 10:30:50;;;;;;;;;1.20;1.20;;;;;23.69;31.37;101651.31;4856926;29;47021;-55
2022/08/07 10:33:19;;;;;;;;;4.00;2.40;;;;;23.77;30.83;101663.94;4854697;29;45464;-53
2022/08/07 10:36:20;;;;;;;;;2.00;2.00;;;;;23.86;31.67;101658.63;4856823;29;45380;-57
2022/08/07 10:39:07;;;;;;;;;2.80;2.00;;;;;23.72;31.15;101621.91;4853426;29;45458;-56
2022/08/07 10:41:40;;;;;;;;;2.40;2.40;;;;;23.46;31.31;101573.41;4856703;29;45993;-52
2022/08/07 10:45:04;;;;;;;;;3.00;3.00;;;;;24.01;30.62;101652.16;4855723;29;45749;-55
2022/08/07 10:47:54;;;;;;;;;2.00;2.00;;;;;24.08;30.49;101649.13;4832659;29;45662;-56
2022/08/07 10:50:41;;;;;;;;;2.40;2.40;;;;;24.13;30.87;101651.91;4838607;29;46036;-56
2022/08/07 10:53:44;;;;;;;;;2.60;1.60;;;;;24.19;30.86;101648.00;4837077;29;46666;-57
2022/08/07 10:56:31;;;;;;;;;3.20;2.60;;;;;24.11;30.45;101628.91;4838487;29;45505;-56
2022/08/07 10:59:11;;;;;;;;;3.20;3.20;;;;;24.07;30.40;101627.81;4831441;29;45905;-57
2022/08/07 11:01:39;;;;;;;;;2.20;2.20;;;;;24.17;29.52;101630.59;4838433;29;45416;-58
2022/08/07 11:04:14;;;;;;;;;4.80;3.00;;;;;24.26;30.35;101635.63;4839587;29;47271;-55
2022/08/07 11:06:55;;;;;;;;;1.40;1.40;;;;;24.26;30.72;101627.22;4838179;29;46108;-55
2022/08/07 11:09:33;;;;;;;;;3.00;3.00;;;;;24.22;30.29;101619.38;4839661;29;45839;-54
2022/08/07 11:12:05;;;;;;;;;3.60;2.80;;;;;24.40;30.00;101630.25;4860816;29;45721;-58
2022/08/07 11:15:07;;;;;;;;;2.00;2.00;;;;;24.39;30.13;101612.59;4817461;29;46988;-56
2022/08/07 11:17:46;;;;;;;;;5.00;5.00;;;;;24.50;30.48;101617.03;4847325;29;45900;-54
2022/08/07 11:20:18;;;;;;;;;3.80;2.80;;;;;24.58;31.00;101603.53;4846784;29;45381;-55
2022/08/07 11:23:02;;;;;;;;;3.20;2.40;;;;;24.59;30.55;101582.78;4860280;29;45446;-50
2022/08/07 11:25:39;;;;;;;;;2.00;2.00;;;;;24.52;30.42;101563.44;4878568;29;46236;-50
2022/08/07 11:28:15;;;;;;;;;2.00;2.00;;;;;24.83;30.00;101604.59;4836102;29;45819;-52
2022/08/07 11:30:57;;;;;;;;;2.00;2.00;;;;;24.81;29.55;101599.25;4845186;29;45347;-51
2022/08/07 11:33:27;;;;;;;;;2.00;2.00;;;;;24.89;29.92;101597.81;4862206;29;45577;-49
2022/08/07 11:35:58;;;;;;;;;3.00;3.00;;;;;24.98;30.60;101601.69;4845892;29;47656;-52
2022/08/07 11:38:38;;;;;;;;;4.80;4.00;;;;;25.08;29.74;101586.75;4861860;29;45474;-50
2022/08/07 11:41:13;;;;;;;;;2.20;2.20;;;;;25.15;29.92;101594.88;4861667;29;45177;-55
2022/08/07 11:44:03;;;;;;;;;3.00;3.00;;;;;25.07;30.09;101562.63;4862625;29;45249;-50
2022/08/07 11:46:43;;;;;;;;;3.00;3.00;;;;;25.28;29.89;101587.75;4846955;29;46366;-52